sensor_id;sensor_type;location;lat;lon;timestamp;pressure;altitude;pressure_sealevel;temperature;humidity
64668;BME280;51077;42.716;23.344;2022-11-15T00:00:25;95971.19;;;8.52;55.71
64668;BME280;51077;42.716;23.344;2022-11-15T00:02:52;95972.91;;;8.50;55.54
64668;BME280;51077;42.716;23.344;2022-11-15T00:05:18;95970.63;;;8.48;55.38
64668;BME280;51077;42.716;23.344;2022-11-15T00:07:43;95969.16;;;8.47;55.67
64668;BME280;51077;42.716;23.344;2022-11-15T00:10:09;95964.63;;;8.44;55.50
64668;BME280;51077;42.716;23.344;2022-11-15T00:12:34;95970.09;;;8.44;55.55
64668;BME280;51077;42.716;23.344;2022-11-15T00:14:59;95961.63;;;8.42;55.59
64668;BME280;51077;42.716;23.344;2022-11-15T00:17:25;95964.38;;;8.42;55.45
64668;BME280;51077;42.716;23.344;2022-11-15T00:19:50;95973.06;;;8.41;55.70
64668;BME280;51077;42.716;23.344;2022-11-15T00:22:16;95962.31;;;8.37;55.66
64668;BME280;51077;42.716;23.344;2022-11-15T00:24:41;95960.03;;;8.36;55.68
64668;BME280;51077;42.716;23.344;2022-11-15T00:27:07;95955.03;;;8.34;55.61
64668;BME280;51077;42.716;23.344;2022-11-15T00:29:33;95955.03;;;8.34;55.41
64668;BME280;51077;42.716;23.344;2022-11-15T00:31:58;95950.81;;;8.33;55.35
64668;BME280;51077;42.716;23.344;2022-11-15T00:34:24;95952.50;;;8.30;55.68
64668;BME280;51077;42.716;23.344;2022-11-15T00:36:49;95958.47;;;8.29;55.42
64668;BME280;51077;42.716;23.344;2022-11-15T00:39:14;95953.50;;;8.27;55.67
64668;BME280;51077;42.716;23.344;2022-11-15T00:41:40;95951.97;;;8.26;55.48
64668;BME280;51077;42.716;23.344;2022-11-15T00:44:05;95946.22;;;8.24;55.54
64668;BME280;51077;42.716;23.344;2022-11-15T00:46:31;95940.00;;;8.24;55.58
64668;BME280;51077;42.716;23.344;2022-11-15T00:48:56;95948.69;;;8.22;55.35
64668;BME280;51077;42.716;23.344;2022-11-15T00:51:21;95949.91;;;8.21;55.55
64668;BME280;51077;42.716;23.344;2022-11-15T00:53:47;95947.66;;;8.20;55.58
64668;BME280;51077;42.716;23.344;2022-11-15T00:56:12;95948.91;;;8.19;55.34
64668;BME280;51077;42.716;23.344;2022-11-15T00:58:37;95944.38;;;8.16;55.28
64668;BME280;51077;42.716;23.344;2022-11-15T01:01:08;95940.41;;;8.17;55.27
64668;BME280;51077;42.716;23.344;2022-11-15T01:03:34;95935.91;;;8.14;55.49
64668;BME280;51077;42.716;23.344;2022-11-15T01:06:00;95933.16;;;8.14;55.46
64668;BME280;51077;42.716;23.344;2022-11-15T01:08:25;95936.13;;;8.10;55.45
64668;BME280;51077;42.716;23.344;2022-11-15T01:10:51;95938.88;;;8.10;55.56
64668;BME280;51077;42.716;23.344;2022-11-15T01:13:16;95933.09;;;8.08;55.35
64668;BME280;51077;42.716;23.344;2022-11-15T01:15:41;95935.09;;;8.07;55.40
64668;BME280;51077;42.716;23.344;2022-11-15T01:18:07;95936.34;;;8.06;55.52
64668;BME280;51077;42.716;23.344;2022-11-15T01:20:32;95932.84;;;8.06;55.32
64668;BME280;51077;42.716;23.344;2022-11-15T01:22:58;95938.78;;;8.04;55.30
64668;BME280;51077;42.716;23.344;2022-11-15T01:25:23;95934.84;;;8.05;55.22
64668;BME280;51077;42.716;23.344;2022-11-15T01:27:49;95936.53;;;8.03;55.43
64668;BME280;51077;42.716;23.344;2022-11-15T01:30:14;95934.28;;;8.01;55.33
64668;BME280;51077;42.716;23.344;2022-11-15T01:32:40;95935.03;;;8.02;55.09
64668;BME280;51077;42.716;23.344;2022-11-15T01:35:05;95930.03;;;8.00;55.07
64668;BME280;51077;42.716;23.344;2022-11-15T01:37:31;95931.25;;;7.99;55.26
64668;BME280;51077;42.716;23.344;2022-11-15T01:39:56;95939.19;;;7.97;55.05
64668;BME280;51077;42.716;23.344;2022-11-15T01:42:21;95934.94;;;7.96;55.20
64668;BME280;51077;42.716;23.344;2022-11-15T01:44:49;95932.69;;;7.95;55.01
64668;BME280;51077;42.716;23.344;2022-11-15T01:47:24;95930.44;;;7.93;55.22
64668;BME280;51077;42.716;23.344;2022-11-15T01:49:57;95930.91;;;7.92;55.09
64668;BME280;51077;42.716;23.344;2022-11-15T01:52:26;95930.16;;;7.91;55.26
64668;BME280;51077;42.716;23.344;2022-11-15T01:54:58;95927.16;;;7.89;55.23
64668;BME280;51077;42.716;23.344;2022-11-15T01:57:26;95931.88;;;7.89;55.47
64668;BME280;51077;42.716;23.344;2022-11-15T01:59:51;95923.41;;;7.87;55.23
64668;BME280;51077;42.716;23.344;2022-11-15T02:02:17;95926.63;;;7.85;55.16
64668;BME280;51077;42.716;23.344;2022-11-15T02:04:45;95931.59;;;7.87;55.27
64668;BME280;51077;42.716;23.344;2022-11-15T02:07:14;95929.84;;;7.84;55.08
64668;BME280;51077;42.716;23.344;2022-11-15T02:09:42;95933.78;;;7.82;55.29
64668;BME280;51077;42.716;23.344;2022-11-15T02:12:09;95929.53;;;7.81;55.11
64668;BME280;51077;42.716;23.344;2022-11-15T02:14:38;95927.31;;;7.80;55.29
64668;BME280;51077;42.716;23.344;2022-11-15T02:20:08;95924.28;;;7.78;55.08
64668;BME280;51077;42.716;23.344;2022-11-15T02:22:51;95918.81;;;7.78;54.90
64668;BME280;51077;42.716;23.344;2022-11-15T02:25:39;95923.28;;;7.75;55.23
64668;BME280;51077;42.716;23.344;2022-11-15T02:33:40;95930.22;;;7.76;54.93
64668;BME280;51077;42.716;23.344;2022-11-15T02:39:50;95925.50;;;7.77;54.76
64668;BME280;51077;42.716;23.344;2022-11-15T02:42:21;95915.81;;;7.76;55.04
64668;BME280;51077;42.716;23.344;2022-11-15T02:45:09;95914.84;;;7.79;54.63
64668;BME280;51077;42.716;23.344;2022-11-15T02:47:44;95923.03;;;7.79;54.70
64668;BME280;51077;42.716;23.344;2022-11-15T02:50:13;95918.81;;;7.78;54.90
64668;BME280;51077;42.716;23.344;2022-11-15T02:52:41;95918.34;;;7.79;54.66
64668;BME280;51077;42.716;23.344;2022-11-15T02:55:26;95920.31;;;7.79;54.71
64668;BME280;51077;42.716;23.344;2022-11-15T03:00:22;95924.81;;;7.82;54.33
64668;BME280;51077;42.716;23.344;2022-11-15T03:03:05;95925.88;;;7.85;54.54
64668;BME280;51077;42.716;23.344;2022-11-15T03:08:31;95926.63;;;7.85;54.53
64668;BME280;51077;42.716;23.344;2022-11-15T03:13:33;95929.34;;;7.85;54.60
64668;BME280;51077;42.716;23.344;2022-11-15T03:19:58;95919.16;;;7.86;54.29
64668;BME280;51077;42.716;23.344;2022-11-15T03:22:06;95923.41;;;7.87;54.39
64668;BME280;51077;42.716;23.344;2022-11-15T03:24:37;95913.22;;;7.87;54.35
64668;BME280;51077;42.716;23.344;2022-11-15T03:27:06;95908.50;;;7.88;54.58
64668;BME280;51077;42.716;23.344;2022-11-15T03:29:35;95910.78;;;7.89;54.21
64668;BME280;51077;42.716;23.344;2022-11-15T03:32:09;95916.22;;;7.89;54.16
64668;BME280;51077;42.716;23.344;2022-11-15T03:37:06;95910.03;;;7.89;54.63
64668;BME280;51077;42.716;23.344;2022-11-15T03:39:32;95901.81;;;7.89;54.32
64668;BME280;51077;42.716;23.344;2022-11-15T03:47:09;95893.34;;;7.87;54.38
64668;BME280;51077;42.716;23.344;2022-11-15T03:49:39;95899.56;;;7.87;54.36
64668;BME280;51077;42.716;23.344;2022-11-15T03:52:09;95894.56;;;7.86;54.58
64668;BME280;51077;42.716;23.344;2022-11-15T03:54:35;95889.09;;;7.86;54.81
64668;BME280;51077;42.716;23.344;2022-11-15T03:57:00;95883.63;;;7.86;54.64
64668;BME280;51077;42.716;23.344;2022-11-15T03:59:25;95887.59;;;7.85;54.66
64668;BME280;51077;42.716;23.344;2022-11-15T04:01:51;95883.63;;;7.86;55.19
64668;BME280;51077;42.716;23.344;2022-11-15T04:04:16;95889.84;;;7.86;54.93
64668;BME280;51077;42.716;23.344;2022-11-15T04:06:42;95891.84;;;7.86;54.75
64668;BME280;51077;42.716;23.344;2022-11-15T04:09:07;95892.31;;;7.84;55.05
64668;BME280;51077;42.716;23.344;2022-11-15T04:11:32;95894.56;;;7.86;55.15
64668;BME280;51077;42.716;23.344;2022-11-15T04:13:58;95884.13;;;7.84;54.85
64668;BME280;51077;42.716;23.344;2022-11-15T04:16:23;95885.63;;;7.85;54.90
64668;BME280;51077;42.716;23.344;2022-11-15T04:18:49;95881.41;;;7.84;55.00
64668;BME280;51077;42.716;23.344;2022-11-15T04:21:34;95875.94;;;7.84;55.31
64668;BME280;51077;42.716;23.344;2022-11-15T04:24:18;95876.69;;;7.85;55.71
64668;BME280;51077;42.716;23.344;2022-11-15T04:26:43;95876.03;;;7.95;64.24
64668;BME280;51077;42.716;23.344;2022-11-15T04:29:09;95883.69;;;8.12;71.55
64668;BME280;51077;42.716;23.344;2022-11-15T04:31:53;95878.47;;;8.34;74.06
64668;BME280;51077;42.716;23.344;2022-11-15T04:34:18;95880.59;;;8.45;73.25
64668;BME280;51077;42.716;23.344;2022-11-15T04:36:43;95888.56;;;8.48;72.30
64668;BME280;51077;42.716;23.344;2022-11-15T04:39:27;95879.63;;;8.48;71.05
64668;BME280;51077;42.716;23.344;2022-11-15T04:41:53;95875.13;;;8.45;69.95
64668;BME280;51077;42.716;23.344;2022-11-15T04:44:18;95879.81;;;8.44;69.13
64668;BME280;51077;42.716;23.344;2022-11-15T04:46:44;95882.03;;;8.40;68.45
64668;BME280;51077;42.716;23.344;2022-11-15T04:49:09;95885.00;;;8.37;67.92
64668;BME280;51077;42.716;23.344;2022-11-15T04:51:35;95881.34;;;8.45;69.99
64668;BME280;51077;42.716;23.344;2022-11-15T04:54:00;95878.44;;;8.54;71.82
64668;BME280;51077;42.716;23.344;2022-11-15T04:56:26;95883.22;;;8.60;70.48
64668;BME280;51077;42.716;23.344;2022-11-15T04:58:51;95882.47;;;8.59;69.97
64668;BME280;51077;42.716;23.344;2022-11-15T05:01:17;95882.94;;;8.57;69.06
64668;BME280;51077;42.716;23.344;2022-11-15T05:03:43;95882.44;;;8.53;68.14
64668;BME280;51077;42.716;23.344;2022-11-15T05:06:28;95885.38;;;8.50;68.01
64668;BME280;51077;42.716;23.344;2022-11-15T05:08:53;95883.09;;;8.48;67.12
64668;BME280;51077;42.716;23.344;2022-11-15T05:11:19;95890.56;;;8.48;66.97
64668;BME280;51077;42.716;23.344;2022-11-15T05:13:46;95890.31;;;8.46;66.56
64668;BME280;51077;42.716;23.344;2022-11-15T05:16:11;95890.75;;;8.44;66.37
64668;BME280;51077;42.716;23.344;2022-11-15T05:18:37;95891.00;;;8.41;65.90
64668;BME280;51077;42.716;23.344;2022-11-15T05:21:07;95887.53;;;8.40;65.42
64668;BME280;51077;42.716;23.344;2022-11-15T05:23:33;95879.53;;;8.37;65.11
64668;BME280;51077;42.716;23.344;2022-11-15T05:25:59;95879.53;;;8.37;65.04
64668;BME280;51077;42.716;23.344;2022-11-15T05:28:25;95884.22;;;8.36;64.68
64668;BME280;51077;42.716;23.344;2022-11-15T05:30:50;95877.53;;;8.37;64.32
64668;BME280;51077;42.716;23.344;2022-11-15T05:33:16;95879.53;;;8.37;64.19
64668;BME280;51077;42.716;23.344;2022-11-15T05:35:46;95874.47;;;8.35;64.05
64668;BME280;51077;42.716;23.344;2022-11-15T05:38:14;95873.00;;;8.34;63.41
64668;BME280;51077;42.716;23.344;2022-11-15T05:40:40;95878.47;;;8.34;63.49
64668;BME280;51077;42.716;23.344;2022-11-15T05:43:05;95879.22;;;8.35;63.34
64668;BME280;51077;42.716;23.344;2022-11-15T05:45:31;95882.44;;;8.33;63.06
64668;BME280;51077;42.716;23.344;2022-11-15T05:48:01;95882.44;;;8.33;62.54
64668;BME280;51077;42.716;23.344;2022-11-15T05:50:30;95876.69;;;8.31;62.82
64668;BME280;51077;42.716;23.344;2022-11-15T05:52:56;95883.38;;;8.30;62.65
64668;BME280;51077;42.716;23.344;2022-11-15T05:55:21;95885.91;;;8.34;62.34
64668;BME280;51077;42.716;23.344;2022-11-15T05:57:47;95890.63;;;8.33;62.38
64668;BME280;51077;42.716;23.344;2022-11-15T06:00:13;95882.44;;;8.33;61.87
64668;BME280;51077;42.716;23.344;2022-11-15T06:02:38;95885.91;;;8.34;61.99
64668;BME280;51077;42.716;23.344;2022-11-15T06:05:04;95894.13;;;8.34;61.78
64668;BME280;51077;42.716;23.344;2022-11-15T06:07:30;95894.88;;;8.34;61.39
64668;BME280;51077;42.716;23.344;2022-11-15T06:09:56;95895.63;;;8.35;61.25
64668;BME280;51077;42.716;23.344;2022-11-15T06:12:21;95899.41;;;8.37;61.05
64668;BME280;51077;42.716;23.344;2022-11-15T06:14:46;95892.69;;;8.38;60.94
64668;BME280;51077;42.716;23.344;2022-11-15T06:17:12;95889.97;;;8.38;60.83
64668;BME280;51077;42.716;23.344;2022-11-15T06:19:37;95891.75;;;8.41;60.79
64668;BME280;51077;42.716;23.344;2022-11-15T06:22:03;95899.47;;;8.43;60.58
64668;BME280;51077;42.716;23.344;2022-11-15T06:24:28;95898.22;;;8.44;60.45
64668;BME280;51077;42.716;23.344;2022-11-15T06:26:54;95894.53;;;8.47;60.62
64668;BME280;51077;42.716;23.344;2022-11-15T06:29:19;95891.31;;;8.48;60.03
64668;BME280;51077;42.716;23.344;2022-11-15T06:31:44;95894.03;;;8.48;60.15
64668;BME280;51077;42.716;23.344;2022-11-15T06:34:10;95887.13;;;8.53;60.03
64668;BME280;51077;42.716;23.344;2022-11-15T06:36:35;95883.16;;;8.54;59.99
64668;BME280;51077;42.716;23.344;2022-11-15T06:39:05;95883.72;;;8.58;59.74
64668;BME280;51077;42.716;23.344;2022-11-15T06:41:33;95880.47;;;8.60;59.59
64668;BME280;51077;42.716;23.344;2022-11-15T06:43:59;95884.25;;;8.62;59.51
64668;BME280;51077;42.716;23.344;2022-11-15T06:46:24;95880.53;;;8.65;59.61
64668;BME280;51077;42.716;23.344;2022-11-15T06:48:53;95884.81;;;8.72;61.31
64668;BME280;51077;42.716;23.344;2022-11-15T06:51:19;95884.13;;;8.77;60.85
64668;BME280;51077;42.716;23.344;2022-11-15T06:53:45;95888.63;;;8.80;61.05
64668;BME280;51077;42.716;23.344;2022-11-15T06:56:10;95880.41;;;8.80;60.69
64668;BME280;51077;42.716;23.344;2022-11-15T06:58:36;95880.69;;;8.82;60.53
64668;BME280;51077;42.716;23.344;2022-11-15T07:01:07;95887.19;;;8.85;60.04
64668;BME280;51077;42.716;23.344;2022-11-15T07:03:38;95885.44;;;8.87;60.12
64668;BME280;51077;42.716;23.344;2022-11-15T07:06:04;95887.72;;;8.89;60.01
64668;BME280;51077;42.716;23.344;2022-11-15T07:08:30;95882.50;;;8.91;59.90
64668;BME280;51077;42.716;23.344;2022-11-15T07:11:00;95880.78;;;8.93;59.80
64668;BME280;51077;42.716;23.344;2022-11-15T07:13:28;95879.53;;;8.94;59.55
64668;BME280;51077;42.716;23.344;2022-11-15T07:15:53;95877.03;;;8.96;59.58
64668;BME280;51077;42.716;23.344;2022-11-15T07:18:19;95866.88;;;8.97;59.29
64668;BME280;51077;42.716;23.344;2022-11-15T07:20:44;95876.09;;;8.99;59.40
64668;BME280;51077;42.716;23.344;2022-11-15T07:23:10;95874.09;;;9.00;59.18
64668;BME280;51077;42.716;23.344;2022-11-15T07:25:35;95874.84;;;9.00;59.28
64668;BME280;51077;42.716;23.344;2022-11-15T07:28:01;95875.88;;;9.03;59.08
64668;BME280;51077;42.716;23.344;2022-11-15T07:30:27;95882.09;;;9.03;59.07
64668;BME280;51077;42.716;23.344;2022-11-15T07:32:57;95879.13;;;9.07;58.92
64668;BME280;51077;42.716;23.344;2022-11-15T07:35:24;95874.91;;;9.06;58.84
64668;BME280;51077;42.716;23.344;2022-11-15T07:37:57;95879.13;;;9.07;58.97
64668;BME280;51077;42.716;23.344;2022-11-15T07:40:24;95881.38;;;9.09;58.81
64668;BME280;51077;42.716;23.344;2022-11-15T07:42:50;95876.66;;;9.09;58.80
64668;BME280;51077;42.716;23.344;2022-11-15T07:45:22;95876.19;;;9.11;58.62
64668;BME280;51077;42.716;23.344;2022-11-15T07:47:49;95873.44;;;9.11;58.77
64668;BME280;51077;42.716;23.344;2022-11-15T07:50:15;95877.19;;;9.13;58.79
64668;BME280;51077;42.716;23.344;2022-11-15T07:52:41;95872.72;;;9.16;58.71
64668;BME280;51077;42.716;23.344;2022-11-15T07:55:06;95879.97;;;9.19;58.58
64668;BME280;51077;42.716;23.344;2022-11-15T07:57:32;95870.75;;;9.22;58.51
64668;BME280;51077;42.716;23.344;2022-11-15T07:59:57;95874.25;;;9.22;58.51
64668;BME280;51077;42.716;23.344;2022-11-15T08:02:23;95876.53;;;9.24;58.59
64668;BME280;51077;42.716;23.344;2022-11-15T08:04:48;95874.31;;;9.28;58.24
64668;BME280;51077;42.716;23.344;2022-11-15T08:07:14;95877.28;;;9.30;58.30
64668;BME280;51077;42.716;23.344;2022-11-15T08:09:39;95879.06;;;9.33;58.27
64668;BME280;51077;42.716;23.344;2022-11-15T08:12:05;95871.84;;;9.36;58.00
64668;BME280;51077;42.716;23.344;2022-11-15T08:14:30;95868.13;;;9.39;58.19
64668;BME280;51077;42.716;23.344;2022-11-15T08:16:56;95867.16;;;9.42;57.83
64668;BME280;51077;42.716;23.344;2022-11-15T08:19:21;95863.94;;;9.43;57.81
64668;BME280;51077;42.716;23.344;2022-11-15T08:21:47;95868.44;;;9.46;57.76
64668;BME280;51077;42.716;23.344;2022-11-15T08:24:12;95860.22;;;9.46;57.63
64668;BME280;51077;42.716;23.344;2022-11-15T08:26:38;95855.72;;;9.49;57.76
64668;BME280;51077;42.716;23.344;2022-11-15T08:29:05;95860.00;;;9.50;57.97
64668;BME280;51077;42.716;23.344;2022-11-15T08:31:30;95859.50;;;9.51;57.65
64668;BME280;51077;42.716;23.344;2022-11-15T08:33:56;95855.50;;;9.52;57.68
64668;BME280;51077;42.716;23.344;2022-11-15T08:36:21;95860.53;;;9.54;57.67
64668;BME280;51077;42.716;23.344;2022-11-15T08:38:46;95858.78;;;9.56;57.54
64668;BME280;51077;42.716;23.344;2022-11-15T08:41:19;95856.78;;;9.57;57.30
64668;BME280;51077;42.716;23.344;2022-11-15T08:43:48;95854.78;;;9.57;57.42
64668;BME280;51077;42.716;23.344;2022-11-15T08:46:13;95847.84;;;9.62;57.55
64668;BME280;51077;42.716;23.344;2022-11-15T08:48:39;95849.34;;;9.63;57.37
64668;BME280;51077;42.716;23.344;2022-11-15T08:51:04;95844.84;;;9.66;57.10
64668;BME280;51077;42.716;23.344;2022-11-15T08:53:29;95845.88;;;9.68;57.07
64668;BME280;51077;42.716;23.344;2022-11-15T08:55:55;95833.19;;;9.71;57.27
64668;BME280;51077;42.716;23.344;2022-11-15T08:58:20;95835.44;;;9.72;57.14
64668;BME280;51077;42.716;23.344;2022-11-15T09:00:46;95839.44;;;9.77;57.14
64668;BME280;51077;42.716;23.344;2022-11-15T09:03:11;95831.22;;;9.77;57.04
64668;BME280;51077;42.716;23.344;2022-11-15T09:05:37;95825.22;;;9.78;57.09
64668;BME280;51077;42.716;23.344;2022-11-15T09:08:03;95824.75;;;9.80;56.92
64668;BME280;51077;42.716;23.344;2022-11-15T09:10:28;95816.03;;;9.81;56.98
64668;BME280;51077;42.716;23.344;2022-11-15T09:12:56;95816.28;;;9.83;56.90
64668;BME280;51077;42.716;23.344;2022-11-15T09:15:22;95815.81;;;9.85;56.90
64668;BME280;51077;42.716;23.344;2022-11-15T09:17:47;95814.56;;;9.86;56.80
64668;BME280;51077;42.716;23.344;2022-11-15T09:20:13;95803.06;;;9.88;56.88
64668;BME280;51077;42.716;23.344;2022-11-15T09:22:38;95808.31;;;9.91;56.80
64668;BME280;51077;42.716;23.344;2022-11-15T09:25:04;95801.88;;;9.94;56.95
64668;BME280;51077;42.716;23.344;2022-11-15T09:27:30;95797.88;;;9.95;56.70
64668;BME280;51077;42.716;23.344;2022-11-15T09:29:55;95800.88;;;9.97;56.91
64668;BME280;51077;42.716;23.344;2022-11-15T09:32:21;95795.91;;;10.01;56.64
64668;BME280;51077;42.716;23.344;2022-11-15T09:34:49;95785.19;;;10.03;56.55
64668;BME280;51077;42.716;23.344;2022-11-15T09:37:14;95793.44;;;10.15;59.05
64668;BME280;51077;42.716;23.344;2022-11-15T09:39:40;95788.19;;;10.22;61.04
64668;BME280;51077;42.716;23.344;2022-11-15T09:42:23;95781.00;;;10.30;60.52
64668;BME280;51077;42.716;23.344;2022-11-15T09:45:04;95777.53;;;10.30;60.21
64668;BME280;51077;42.716;23.344;2022-11-15T09:50:45;95770.28;;;10.38;59.61
64668;BME280;51077;42.716;23.344;2022-11-15T09:53:27;95773.28;;;10.40;59.27
64668;BME280;51077;42.716;23.344;2022-11-15T09:56:21;95769.31;;;10.41;59.11
64668;BME280;51077;42.716;23.344;2022-11-15T10:04:20;95755.06;;;10.48;58.48
64668;BME280;51077;42.716;23.344;2022-11-15T10:06:54;95741.84;;;10.52;58.33
64668;BME280;51077;42.716;23.344;2022-11-15T10:09:44;95741.09;;;10.57;58.13
64668;BME280;51077;42.716;23.344;2022-11-15T10:12:13;95745.09;;;10.62;58.17
64668;BME280;51077;42.716;23.344;2022-11-15T10:14:39;95734.59;;;10.66;57.67
64668;BME280;51077;42.716;23.344;2022-11-15T10:17:44;95735.84;;;10.71;57.35
64668;BME280;51077;42.716;23.344;2022-11-15T10:20:27;95736.59;;;10.77;57.32
64668;BME280;51077;42.716;23.344;2022-11-15T10:22:59;95735.84;;;10.82;57.26
64668;BME280;51077;42.716;23.344;2022-11-15T10:25:30;95740.56;;;10.87;57.04
64668;BME280;51077;42.716;23.344;2022-11-15T10:27:59;95734.31;;;10.92;56.55
64668;BME280;51077;42.716;23.344;2022-11-15T10:30:37;95728.09;;;10.97;56.42
64668;BME280;51077;42.716;23.344;2022-11-15T10:41:19;95703.22;;;11.31;55.57
64668;BME280;51077;42.716;23.344;2022-11-15T10:44:00;95698.22;;;11.41;55.37
64668;BME280;51077;42.716;23.344;2022-11-15T10:46:26;95698.16;;;11.52;54.82
64668;BME280;51077;42.716;23.344;2022-11-15T10:48:51;95690.59;;;11.64;54.75
64668;BME280;51077;42.716;23.344;2022-11-15T10:51:41;95695.53;;;11.76;54.40
64668;BME280;51077;42.716;23.344;2022-11-15T10:54:10;95684.47;;;11.88;54.11
64668;BME280;51077;42.716;23.344;2022-11-15T10:56:39;95684.09;;;12.08;53.82
64668;BME280;51077;42.716;23.344;2022-11-15T10:59:15;95675.72;;;12.25;53.35
64668;BME280;51077;42.716;23.344;2022-11-15T11:01:48;95674.03;;;12.46;52.82
64668;BME280;51077;42.716;23.344;2022-11-15T11:04:13;95659.38;;;12.63;52.61
64668;BME280;51077;42.716;23.344;2022-11-15T11:06:59;95671.91;;;12.82;51.90
64668;BME280;51077;42.716;23.344;2022-11-15T11:09:36;95654.31;;;13.10;51.62
64668;BME280;51077;42.716;23.344;2022-11-15T11:12:04;95646.19;;;13.42;51.11
64668;BME280;51077;42.716;23.344;2022-11-15T11:14:31;95651.03;;;13.74;50.28
64668;BME280;51077;42.716;23.344;2022-11-15T11:20:05;95650.03;;;14.54;48.69
64668;BME280;51077;42.716;23.344;2022-11-15T11:25:33;95635.84;;;15.51;46.53
64668;BME280;51077;42.716;23.344;2022-11-15T11:36:50;95613.13;;;17.79;43.56
64668;BME280;51077;42.716;23.344;2022-11-15T11:42:03;95591.09;;;18.88;41.84
64668;BME280;51077;42.716;23.344;2022-11-15T11:44:43;95585.56;;;19.36;41.14
64668;BME280;51077;42.716;23.344;2022-11-15T11:47:21;95586.84;;;19.83;40.19
64668;BME280;51077;42.716;23.344;2022-11-15T11:49:58;95583.59;;;20.19;39.70
64668;BME280;51077;42.716;23.344;2022-11-15T11:52:34;95584.81;;;20.58;39.17
64668;BME280;51077;42.716;23.344;2022-11-15T11:55:31;95575.91;;;20.95;38.61
64668;BME280;51077;42.716;23.344;2022-11-15T11:58:06;95577.53;;;21.32;37.78
64668;BME280;51077;42.716;23.344;2022-11-15T12:00:41;95575.09;;;21.64;37.66
64668;BME280;51077;42.716;23.344;2022-11-15T12:03:58;95563.19;;;21.90;36.99
64668;BME280;51077;42.716;23.344;2022-11-15T12:08:58;95543.53;;;22.35;36.49
64668;BME280;51077;42.716;23.344;2022-11-15T12:14:09;95544.88;;;22.63;36.61
64668;BME280;51077;42.716;23.344;2022-11-15T12:16:39;95541.41;;;22.81;36.62
64668;BME280;51077;42.716;23.344;2022-11-15T12:19:07;95529.31;;;22.98;36.42
64668;BME280;51077;42.716;23.344;2022-11-15T12:24:38;95521.94;;;23.32;35.83
64668;BME280;51077;42.716;23.344;2022-11-15T12:27:24;95522.19;;;23.46;35.46
64668;BME280;51077;42.716;23.344;2022-11-15T12:29:58;95518.34;;;23.61;35.20
64668;BME280;51077;42.716;23.344;2022-11-15T12:32:28;95509.78;;;23.68;35.08
64668;BME280;51077;42.716;23.344;2022-11-15T12:34:55;95514.06;;;23.69;34.54
64668;BME280;51077;42.716;23.344;2022-11-15T12:37:48;95510.94;;;23.75;34.74
64668;BME280;51077;42.716;23.344;2022-11-15T12:43:33;95499.25;;;23.88;34.54
64668;BME280;51077;42.716;23.344;2022-11-15T12:46:01;95496.28;;;23.96;34.51
64668;BME280;51077;42.716;23.344;2022-11-15T12:51:05;95495.66;;;23.97;34.33
64668;BME280;51077;42.716;23.344;2022-11-15T12:53:33;95491.25;;;23.94;34.33
64668;BME280;51077;42.716;23.344;2022-11-15T12:58:52;95488.22;;;23.80;34.32
64668;BME280;51077;42.716;23.344;2022-11-15T13:06:44;95479.84;;;23.61;34.54
64668;BME280;51077;42.716;23.344;2022-11-15T13:11:54;95471.81;;;23.36;34.81
64668;BME280;51077;42.716;23.344;2022-11-15T13:17:02;95455.34;;;23.21;35.05
64668;BME280;51077;42.716;23.344;2022-11-15T13:19:28;95465.38;;;23.14;34.98
64668;BME280;51077;42.716;23.344;2022-11-15T13:21:54;95455.53;;;23.03;35.00
64668;BME280;51077;42.716;23.344;2022-11-15T13:24:38;95453.31;;;22.92;35.14
64668;BME280;51077;42.716;23.344;2022-11-15T13:27:14;95457.72;;;22.86;35.32
64668;BME280;51077;42.716;23.344;2022-11-15T13:29:43;95445.06;;;22.75;35.20
64668;BME280;51077;42.716;23.344;2022-11-15T13:32:15;95448.31;;;22.62;35.28
64668;BME280;51077;42.716;23.344;2022-11-15T13:34:46;95446.09;;;22.50;35.74
64668;BME280;51077;42.716;23.344;2022-11-15T13:39:48;95435.16;;;22.16;35.82
64668;BME280;51077;42.716;23.344;2022-11-15T13:42:16;95435.09;;;21.96;36.10
64668;BME280;51077;42.716;23.344;2022-11-15T13:44:58;95444.91;;;21.78;36.19
64668;BME280;51077;42.716;23.344;2022-11-15T13:47:28;95441.59;;;21.62;36.29
64668;BME280;51077;42.716;23.344;2022-11-15T13:49:57;95440.94;;;21.44;36.81
64668;BME280;51077;42.716;23.344;2022-11-15T13:52:27;95443.78;;;21.27;36.70
64668;BME280;51077;42.716;23.344;2022-11-15T13:55:01;95435.72;;;21.04;37.01
64668;BME280;51077;42.716;23.344;2022-11-15T13:57:42;95434.78;;;20.74;37.51
64668;BME280;51077;42.716;23.344;2022-11-15T14:02:47;95435.50;;;20.23;38.29
64668;BME280;51077;42.716;23.344;2022-11-15T14:05:17;95439.25;;;20.00;38.54
64668;BME280;51077;42.716;23.344;2022-11-15T14:10:37;95430.38;;;19.44;39.31
64668;BME280;51077;42.716;23.344;2022-11-15T14:13:09;95428.66;;;19.24;39.25
64668;BME280;51077;42.716;23.344;2022-11-15T14:15:37;95428.63;;;18.99;39.76
64668;BME280;51077;42.716;23.344;2022-11-15T14:18:04;95429.09;;;18.80;40.17
64668;BME280;51077;42.716;23.344;2022-11-15T14:20:32;95423.22;;;18.61;40.53
64668;BME280;51077;42.716;23.344;2022-11-15T14:23:00;95426.44;;;18.42;40.77
64668;BME280;51077;42.716;23.344;2022-11-15T14:25:31;95418.34;;;18.21;41.09
64668;BME280;51077;42.716;23.344;2022-11-15T14:30:45;95418.03;;;17.78;41.87
64668;BME280;51077;42.716;23.344;2022-11-15T14:33:30;95422.44;;;17.58;42.11
64668;BME280;51077;42.716;23.344;2022-11-15T14:36:02;95421.13;;;17.37;42.38
64668;BME280;51077;42.716;23.344;2022-11-15T14:38:28;95423.88;;;17.14;42.66
64668;BME280;51077;42.716;23.344;2022-11-15T14:40:54;95419.59;;;16.90;43.05
64668;BME280;51077;42.716;23.344;2022-11-15T14:43:21;95425.22;;;16.69;43.44
64668;BME280;51077;42.716;23.344;2022-11-15T14:45:46;95423.63;;;16.45;43.72
64668;BME280;51077;42.716;23.344;2022-11-15T14:48:12;95428.50;;;16.23;43.97
64668;BME280;51077;42.716;23.344;2022-11-15T14:50:37;95434.66;;;16.01;44.31